Time;durP1;ratioP1;P1;durP2;ratioP2;P2;SDS_P1;SDS_P2;PMS_P1;PMS_P2;Temp;Humidity;BMP_temperature;BMP_pressure;BME280_temperature;BME280_humidity;BME280_pressure;Samples;Min_cycle;Max_cycle;Signal;HPM_P1;HPM_P2
2022/12/07 00:00:28;;;;;;;25.40;23.40;;;3.80;99.90;;;;;;5101553;28;20217;-55
2022/12/07 00:02:53;;;;;;;26.30;23.90;;;3.80;99.90;;;;;;5102307;28;21153;-57
2022/12/07 00:05:19;;;;;;;25.27;23.13;;;3.80;99.90;;;;;;5102257;28;20445;-54
2022/12/07 00:07:44;;;;;;;26.33;24.13;;;3.70;99.90;;;;;;5101743;28;20264;-54
2022/12/07 00:10:10;;;;;;;26.50;24.20;;;3.70;99.90;;;;;;5101912;28;20230;-56
2022/12/07 00:12:35;;;;;;;24.67;22.60;;;3.70;99.90;;;;;;5102012;28;20249;-56
2022/12/07 00:15:01;;;;;;;24.77;22.70;;;3.80;99.90;;;;;;5101298;28;20266;-56
2022/12/07 00:17:27;;;;;;;24.27;22.17;;;3.70;99.90;;;;;;5101086;28;20333;-57
2022/12/07 00:19:52;;;;;;;23.97;21.97;;;3.70;99.90;;;;;;5101874;28;20811;-54
2022/12/07 00:22:18;;;;;;;23.70;21.70;;;3.80;99.90;;;;;;5100181;28;20194;-56
2022/12/07 00:24:43;;;;;;;24.90;22.70;;;3.70;99.90;;;;;;5100095;28;20263;-54
2022/12/07 00:27:09;;;;;;;22.10;20.30;;;3.70;99.90;;;;;;5102716;28;20180;-54
2022/12/07 00:29:36;;;;;;;23.90;21.90;;;3.70;99.90;;;;;;5101436;28;20641;-52
2022/12/07 00:32:02;;;;;;;23.17;21.23;;;3.80;99.90;;;;;;5102217;28;20270;-53
2022/12/07 00:34:28;;;;;;;23.85;21.85;;;3.80;99.90;;;;;;5102306;28;20178;-51
2022/12/07 00:36:54;;;;;;;23.60;21.70;;;3.80;99.90;;;;;;5101698;28;20180;-54
2022/12/07 00:39:19;;;;;;;23.33;21.23;;;3.70;99.90;;;;;;5101161;28;20194;-55
2022/12/07 00:41:45;;;;;;;23.27;21.27;;;3.70;99.90;;;;;;5101137;28;20187;-54
2022/12/07 00:44:11;;;;;;;24.20;22.20;;;3.80;99.90;;;;;;5101543;28;20191;-55
2022/12/07 00:46:37;;;;;;;23.30;21.20;;;3.70;99.90;;;;;;5102319;28;20210;-55
2022/12/07 00:49:03;;;;;;;22.90;20.90;;;3.80;99.90;;;;;;5101036;28;20194;-54
2022/12/07 00:51:28;;;;;;;23.63;21.63;;;3.80;99.90;;;;;;5101111;28;20330;-53
2022/12/07 00:53:54;;;;;;;22.60;20.70;;;3.80;99.90;;;;;;5102044;28;20750;-54
2022/12/07 00:56:26;;;;;;;23.43;21.40;;;3.70;99.90;;;;;;5100555;28;20207;-55
2022/12/07 00:58:57;;;;;;;22.67;20.77;;;3.80;99.90;;;;;;5101093;28;20267;-51
2022/12/07 01:01:25;;;;;;;22.60;20.60;;;3.80;99.90;;;;;;5100355;28;20184;-53
2022/12/07 01:03:51;;;;;;;23.02;21.02;;;3.80;99.90;;;;;;5100647;28;20705;-52
2022/12/07 01:06:18;;;;;;;23.23;21.23;;;3.90;99.90;;;;;;5099522;28;20389;-53
2022/12/07 01:08:44;;;;;;;21.75;19.85;;;3.90;99.90;;;;;;5101201;28;20175;-56
2022/12/07 01:11:13;;;;;;;22.55;20.50;;;3.90;99.90;;;;;;5100814;28;20208;-54
2022/12/07 01:13:39;;;;;;;22.60;20.65;;;3.90;99.90;;;;;;5101288;28;20275;-54
2022/12/07 01:16:06;;;;;;;23.27;21.17;;;4.00;99.90;;;;;;5100568;28;20227;-52
2022/12/07 01:18:34;;;;;;;21.90;20.10;;;4.00;99.90;;;;;;5100769;28;20426;-54
2022/12/07 01:21:16;;;;;;;22.52;20.42;;;4.00;99.90;;;;;;5101673;28;20176;-52
2022/12/07 01:23:42;;;;;;;20.92;19.13;;;4.00;99.90;;;;;;5100586;28;20246;-54
2022/12/07 01:26:12;;;;;;;22.02;20.02;;;4.00;99.90;;;;;;5098106;28;20183;-53
2022/12/07 01:28:38;;;;;;;23.25;21.25;;;4.00;99.90;;;;;;5101060;28;20196;-53
2022/12/07 01:31:06;;;;;;;23.23;21.15;;;3.90;99.90;;;;;;5100118;28;20480;-50
2022/12/07 01:33:35;;;;;;;23.55;21.50;;;3.90;99.90;;;;;;5101503;28;20187;-53
2022/12/07 01:36:23;;;;;;;23.00;20.83;;;3.90;99.90;;;;;;5100798;28;20188;-55
2022/12/07 01:38:52;;;;;;;22.13;20.23;;;3.90;99.90;;;;;;5100679;28;20175;-51
2022/12/07 01:41:18;;;;;;;24.70;22.55;;;4.00;99.90;;;;;;5099241;28;20247;-52
2022/12/07 01:44:21;;;;;;;23.60;21.40;;;4.00;99.90;;;;;;5099785;28;20426;-57
2022/12/07 01:46:52;;;;;;;21.85;19.95;;;4.00;99.90;;;;;;5100849;28;20184;-54
2022/12/07 01:49:36;;;;;;;23.00;20.85;;;4.00;99.90;;;;;;5099509;28;20211;-57
2022/12/07 01:52:22;;;;;;;23.25;20.98;;;3.90;99.90;;;;;;5100451;28;20208;-53
2022/12/07 01:54:52;;;;;;;22.42;20.33;;;4.00;99.90;;;;;;5099051;28;20185;-53
2022/12/07 01:57:19;;;;;;;23.27;21.08;;;3.90;99.90;;;;;;5100123;28;20191;-51
2022/12/07 01:59:50;;;;;;;22.38;20.63;;;3.90;99.90;;;;;;5099000;28;20179;-52
2022/12/07 02:02:31;;;;;;;21.23;19.42;;;3.90;99.90;;;;;;5100140;28;20188;-49
2022/12/07 02:04:58;;;;;;;21.17;19.42;;;3.90;99.90;;;;;;5099575;28;20650;-52
2022/12/07 02:07:25;;;;;;;21.10;19.30;;;3.90;99.90;;;;;;5099361;27;20182;-53
2022/12/07 02:09:51;;;;;;;21.70;19.80;;;3.90;99.90;;;;;;5100090;28;20581;-53
2022/12/07 02:12:17;;;;;;;21.03;19.17;;;3.80;99.90;;;;;;5099284;28;20242;-54
2022/12/07 02:14:42;;;;;;;21.53;19.73;;;3.80;99.90;;;;;;5098930;28;20180;-55
2022/12/07 02:17:25;;;;;;;21.53;19.63;;;3.80;99.90;;;;;;5098940;28;20481;-52
2022/12/07 02:20:23;;;;;;;21.58;19.77;;;3.80;99.90;;;;;;5098975;28;20203;-51
2022/12/07 02:23:13;;;;;;;19.83;18.23;;;3.70;99.90;;;;;;5099578;28;20278;-53
2022/12/07 02:25:53;;;;;;;20.38;18.80;;;3.70;99.90;;;;;;5098325;28;20219;-52
2022/12/07 02:28:34;;;;;;;21.45;19.80;;;3.70;99.90;;;;;;5097426;28;20196;-54
2022/12/07 02:31:08;;;;;;;20.08;18.48;;;3.70;99.90;;;;;;5099475;28;20676;-51
2022/12/07 02:33:45;;;;;;;20.80;19.20;;;3.60;99.90;;;;;;5098910;28;20171;-50
2022/12/07 02:36:26;;;;;;;20.40;18.85;;;3.60;99.90;;;;;;5098847;28;20742;-48
2022/12/07 02:39:08;;;;;;;20.25;18.65;;;3.60;99.90;;;;;;5099054;28;20629;-51
2022/12/07 02:41:41;;;;;;;19.60;17.90;;;3.50;99.90;;;;;;5099058;28;20191;-47
2022/12/07 02:44:27;;;;;;;19.65;18.17;;;3.50;99.90;;;;;;5098253;28;20191;-46
2022/12/07 02:47:07;;;;;;;20.52;18.85;;;3.40;99.90;;;;;;5099515;28;20262;-50
2022/12/07 02:49:35;;;;;;;19.23;17.77;;;3.40;99.90;;;;;;5097697;28;20209;-46
2022/12/07 02:52:01;;;;;;;19.05;17.55;;;3.40;99.90;;;;;;5099580;28;20227;-47
2022/12/07 02:54:26;;;;;;;19.10;17.57;;;3.30;99.90;;;;;;5099889;28;20774;-49
2022/12/07 02:56:54;;;;;;;20.00;18.30;;;3.40;99.90;;;;;;5098891;28;21051;-51
2022/12/07 02:59:30;;;;;;;19.10;17.60;;;3.40;99.90;;;;;;5098327;28;20180;-46
2022/12/07 03:02:15;;;;;;;19.83;18.23;;;3.30;99.90;;;;;;5099472;28;20187;-49
2022/12/07 03:04:49;;;;;;;20.10;18.60;;;3.30;99.90;;;;;;5099558;28;20266;-47
2022/12/07 03:07:33;;;;;;;21.10;19.45;;;3.30;99.90;;;;;;5098967;28;21312;-52
2022/12/07 03:10:05;;;;;;;19.73;18.13;;;3.30;99.90;;;;;;5100480;28;20601;-48
2022/12/07 03:12:43;;;;;;;19.55;18.05;;;3.30;99.90;;;;;;5099520;28;20224;-50
2022/12/07 03:15:18;;;;;;;20.67;19.02;;;3.30;99.90;;;;;;5099516;28;20175;-48
2022/12/07 03:17:46;;;;;;;20.48;18.77;;;3.30;99.90;;;;;;5098605;28;20306;-44
2022/12/07 03:20:16;;;;;;;20.50;18.80;;;3.30;99.90;;;;;;5097764;28;20188;-48
2022/12/07 03:22:44;;;;;;;20.92;19.13;;;3.30;99.90;;;;;;5096264;28;20266;-45
2022/12/07 03:25:13;;;;;;;21.75;19.95;;;3.20;99.90;;;;;;5098043;28;20274;-49
2022/12/07 03:27:47;;;;;;;21.55;19.75;;;3.20;99.90;;;;;;5098469;28;20216;-50
2022/12/07 03:30:21;;;;;;;21.58;19.60;;;3.30;99.90;;;;;;5099248;28;20268;-49
2022/12/07 03:32:56;;;;;;;21.15;19.25;;;3.20;99.90;;;;;;5098608;28;20219;-48
2022/12/07 03:35:28;;;;;;;22.73;20.63;;;3.20;99.90;;;;;;5098318;28;20179;-51
2022/12/07 03:38:21;;;;;;;21.88;19.98;;;3.10;99.90;;;;;;5099003;28;20499;-52
2022/12/07 03:40:59;;;;;;;21.70;19.75;;;3.20;99.90;;;;;;5098016;28;20209;-54
2022/12/07 03:43:27;;;;;;;22.63;20.73;;;3.20;99.90;;;;;;5098420;28;20427;-51
2022/12/07 03:46:16;;;;;;;22.33;20.27;;;3.10;99.90;;;;;;5098294;28;20214;-50
2022/12/07 03:48:46;;;;;;;21.73;19.92;;;3.00;99.90;;;;;;5098663;28;20840;-53
2022/12/07 03:51:31;;;;;;;22.20;20.10;;;3.00;99.90;;;;;;5097995;28;20203;-51
2022/12/07 03:54:09;;;;;;;21.95;19.95;;;3.00;99.90;;;;;;5098987;28;20574;-54
2022/12/07 03:56:37;;;;;;;22.48;20.60;;;3.00;99.90;;;;;;5098604;28;20171;-54
2022/12/07 03:59:02;;;;;;;22.88;20.88;;;3.00;99.90;;;;;;5098252;28;20184;-53
2022/12/07 04:01:28;;;;;;;21.40;19.47;;;3.00;99.90;;;;;;5099345;28;20500;-53
2022/12/07 04:03:53;;;;;;;22.40;20.30;;;3.00;99.90;;;;;;5099665;28;20610;-53
2022/12/07 04:06:19;;;;;;;23.43;21.37;;;3.10;99.90;;;;;;5099009;28;20623;-52
2022/12/07 04:08:45;;;;;;;25.20;22.73;;;3.00;99.90;;;;;;5099348;28;20528;-54
2022/12/07 04:11:10;;;;;;;22.10;20.10;;;2.90;99.90;;;;;;5098069;28;20214;-51
2022/12/07 04:14:18;;;;;;;22.80;20.93;;;2.90;99.90;;;;;;5098658;28;20183;-53
2022/12/07 04:16:21;;;;;;;23.52;21.23;;;2.90;99.90;;;;;;5098201;28;20653;-53
2022/12/07 04:18:47;;;;;;;28.03;21.00;;;3.00;99.90;;;;;;5098678;28;20599;-52
2022/12/07 04:21:13;;;;;;;22.70;20.70;;;3.00;99.90;;;;;;5100795;28;20226;-51
2022/12/07 04:23:38;;;;;;;23.00;20.80;;;3.00;99.90;;;;;;5100366;28;20187;-49
2022/12/07 04:26:04;;;;;;;23.40;21.13;;;3.00;99.90;;;;;;5102641;28;20188;-52
2022/12/07 04:28:30;;;;;;;21.50;19.50;;;3.10;99.90;;;;;;5102029;28;20287;-55
2022/12/07 04:30:55;;;;;;;22.63;20.50;;;3.10;99.90;;;;;;5100963;28;20188;-51
2022/12/07 04:33:21;;;;;;;21.83;19.87;;;3.20;99.90;;;;;;5102439;28;20210;-52
2022/12/07 04:35:46;;;;;;;23.10;21.00;;;3.20;99.90;;;;;;5102465;28;20187;-48
2022/12/07 04:38:12;;;;;;;19.90;18.20;;;3.20;99.90;;;;;;5101154;28;20179;-49
2022/12/07 04:40:37;;;;;;;20.57;18.50;;;3.20;99.90;;;;;;5101046;28;20190;-51
2022/12/07 04:43:04;;;;;;;20.67;18.87;;;3.20;99.90;;;;;;5102757;28;20274;-52
2022/12/07 04:45:30;;;;;;;21.00;19.15;;;3.10;99.90;;;;;;5102098;28;20580;-52
2022/12/07 04:47:55;;;;;;;20.33;18.33;;;3.10;99.90;;;;;;5101535;28;20446;-53
2022/12/07 04:50:21;;;;;;;20.33;18.53;;;3.00;99.90;;;;;;5100771;28;20238;-52
2022/12/07 04:52:47;;;;;;;20.40;18.50;;;3.00;99.90;;;;;;5100071;28;20199;-51
2022/12/07 04:55:12;;;;;;;20.53;18.60;;;2.90;99.90;;;;;;5100122;28;20441;-53
2022/12/07 04:57:38;;;;;;;20.63;18.83;;;2.80;99.90;;;;;;5101443;28;20552;-54
2022/12/07 05:00:04;;;;;;;21.40;19.50;;;2.70;99.90;;;;;;5101108;28;20837;-55
2022/12/07 05:02:30;;;;;;;22.80;20.70;;;2.60;99.90;;;;;;5091130;28;20199;-51
2022/12/07 05:04:55;;;;;;;21.57;19.57;;;2.50;99.90;;;;;;5100384;28;20700;-50
2022/12/07 05:07:21;;;;;;;19.83;18.03;;;2.40;99.90;;;;;;5100690;28;20255;-48
2022/12/07 05:09:46;;;;;;;19.57;17.67;;;2.40;99.90;;;;;;5098912;28;20187;-54
2022/12/07 05:12:12;;;;;;;21.70;19.70;;;2.30;99.90;;;;;;5098454;28;21753;-48
2022/12/07 05:14:38;;;;;;;21.23;19.33;;;2.20;99.90;;;;;;5100821;28;20701;-53
2022/12/07 05:17:04;;;;;;;21.50;19.50;;;2.20;99.90;;;;;;5100322;28;20230;-50
2022/12/07 05:19:29;;;;;;;21.13;19.23;;;2.20;99.90;;;;;;5099358;28;20657;-50
2022/12/07 05:21:55;;;;;;;21.93;19.77;;;2.10;99.90;;;;;;5099176;28;20804;-49
2022/12/07 05:24:20;;;;;;;20.80;18.90;;;2.10;99.90;;;;;;5099913;28;20191;-49
2022/12/07 05:26:46;;;;;;;21.30;19.20;;;2.10;99.90;;;;;;5100485;28;20198;-52
2022/12/07 05:29:14;;;;;;;20.40;18.60;;;2.20;99.90;;;;;;5102214;28;20648;-49
2022/12/07 05:31:40;;;;;;;20.63;18.63;;;2.20;99.90;;;;;;5097986;28;20692;-53
2022/12/07 05:34:05;;;;;;;19.63;17.77;;;2.20;99.90;;;;;;5100589;28;20190;-51
2022/12/07 05:36:31;;;;;;;21.43;19.43;;;2.20;99.90;;;;;;5094785;28;20184;-50
2022/12/07 05:38:57;;;;;;;20.88;18.98;;;2.20;99.90;;;;;;5095347;28;20537;-49
2022/12/07 05:44:07;;;;;;;20.95;19.10;;;2.20;99.90;;;;;;5099504;28;20451;-50
2022/12/07 05:46:34;;;;;;;20.57;18.60;;;2.30;99.90;;;;;;5101284;28;20187;-51
2022/12/07 05:48:59;;;;;;;21.08;18.95;;;2.30;99.90;;;;;;5101233;28;20197;-53
2022/12/07 05:51:25;;;;;;;19.80;18.00;;;2.30;99.90;;;;;;5100090;28;20738;-49
2022/12/07 05:53:51;;;;;;;20.40;18.50;;;2.40;99.90;;;;;;5100756;28;20190;-47
2022/12/07 05:56:16;;;;;;;20.50;18.53;;;2.50;99.90;;;;;;5100910;28;20175;-51
2022/12/07 06:01:26;;;;;;;19.90;17.90;;;2.60;99.90;;;;;;5100110;28;20186;-49
2022/12/07 06:03:52;;;;;;;18.73;17.03;;;2.60;99.90;;;;;;5100895;28;20562;-50
2022/12/07 06:06:17;;;;;;;19.70;18.10;;;2.70;99.90;;;;;;5100897;28;20183;-51
2022/12/07 06:08:43;;;;;;;18.10;16.60;;;2.70;99.90;;;;;;5100578;28;20657;-51
2022/12/07 06:13:53;;;;;;;18.13;16.63;;;2.80;99.90;;;;;;5100942;28;20186;-49
2022/12/07 06:16:18;;;;;;;18.60;17.00;;;2.80;99.90;;;;;;5100554;28;20235;-46
2022/12/07 06:18:44;;;;;;;16.70;15.40;;;2.90;99.90;;;;;;5100682;28;20191;-49
2022/12/07 06:21:09;;;;;;;17.30;15.90;;;3.00;99.90;;;;;;5100726;28;20239;-48
2022/12/07 06:23:35;;;;;;;17.83;16.30;;;3.00;99.90;;;;;;5100078;28;20535;-52
2022/12/07 06:26:00;;;;;;;17.90;16.40;;;3.00;99.90;;;;;;5100429;28;20234;-51
2022/12/07 06:28:26;;;;;;;17.20;15.60;;;3.10;99.90;;;;;;5100441;28;20240;-48
2022/12/07 06:31:00;;;;;;;17.30;15.90;;;3.10;99.90;;;;;;5098464;28;20191;-50
2022/12/07 06:33:26;;;;;;;18.77;17.13;;;3.10;99.90;;;;;;5100435;28;20447;-51
2022/12/07 06:35:51;;;;;;;18.45;16.85;;;3.20;99.90;;;;;;5100667;28;20176;-49
2022/12/07 06:38:17;;;;;;;19.03;17.43;;;3.30;99.90;;;;;;5100443;28;20826;-48
2022/12/07 06:40:43;;;;;;;17.90;16.50;;;3.40;99.90;;;;;;5100207;28;20296;-49
2022/12/07 06:43:08;;;;;;;16.40;15.03;;;3.30;99.90;;;;;;5099672;28;20701;-47
2022/12/07 06:45:34;;;;;;;16.80;15.40;;;3.50;99.90;;;;;;5100443;28;20275;-46
2022/12/07 06:48:00;;;;;;;16.40;15.20;;;3.50;99.90;;;;;;5100035;28;20184;-47
2022/12/07 06:50:26;;;;;;;15.95;14.85;;;3.50;99.90;;;;;;5100054;28;20821;-52
2022/12/07 06:52:52;;;;;;;16.53;15.33;;;3.60;99.90;;;;;;5100339;28;20204;-53
2022/12/07 06:55:18;;;;;;;15.13;13.90;;;3.70;99.90;;;;;;5100021;28;20175;-49
2022/12/07 06:57:43;;;;;;;15.63;14.53;;;3.70;99.90;;;;;;5100052;28;20712;-52
2022/12/07 07:00:10;;;;;;;16.17;14.77;;;3.70;99.90;;;;;;5098646;28;20188;-48
2022/12/07 07:02:35;;;;;;;15.40;14.20;;;3.70;99.90;;;;;;5099676;28;20172;-56
2022/12/07 07:05:01;;;;;;;16.30;14.97;;;3.70;99.90;;;;;;5098571;28;20552;-45
2022/12/07 07:07:27;;;;;;;16.57;15.33;;;3.70;99.90;;;;;;5100034;28;20195;-49
2022/12/07 07:09:52;;;;;;;16.43;15.13;;;3.70;99.90;;;;;;5100290;28;20730;-49
2022/12/07 07:12:18;;;;;;;15.67;14.57;;;3.70;99.90;;;;;;5099750;28;20195;-48
2022/12/07 07:14:44;;;;;;;16.57;15.17;;;3.80;99.90;;;;;;5099583;28;20434;-50
2022/12/07 07:17:09;;;;;;;17.50;16.30;;;3.80;99.90;;;;;;5098785;28;20227;-48
2022/12/07 07:19:36;;;;;;;15.73;14.63;;;3.60;99.90;;;;;;5099639;28;20346;-56
2022/12/07 07:22:02;;;;;;;17.40;16.20;;;3.60;99.90;;;;;;5099973;28;20740;-56
2022/12/07 07:24:27;;;;;;;18.23;17.00;;;3.50;99.90;;;;;;5099446;28;20180;-56
2022/12/07 07:26:53;;;;;;;18.53;17.33;;;3.50;99.90;;;;;;5099769;28;20478;-58
2022/12/07 07:29:18;;;;;;;18.57;17.27;;;3.60;99.90;;;;;;5100104;28;20476;-52
2022/12/07 07:31:44;;;;;;;17.43;16.20;;;3.50;99.90;;;;;;5092484;28;20200;-58
2022/12/07 07:34:10;;;;;;;18.80;17.50;;;3.40;99.90;;;;;;5095605;28;20186;-56
2022/12/07 07:36:35;;;;;;;17.73;16.43;;;3.40;99.90;;;;;;5097281;28;20215;-53
2022/12/07 07:39:01;;;;;;;17.20;16.10;;;3.30;99.90;;;;;;5099326;28;20187;-56
2022/12/07 07:41:26;;;;;;;17.53;16.33;;;3.30;99.90;;;;;;5100091;28;20666;-55
2022/12/07 07:43:52;;;;;;;18.20;17.00;;;3.20;99.90;;;;;;5099683;28;20976;-56
2022/12/07 07:46:18;;;;;;;19.00;17.70;;;3.30;99.90;;;;;;5099735;28;20199;-51
2022/12/07 07:48:43;;;;;;;18.50;17.20;;;3.30;99.90;;;;;;5100123;28;20508;-53
2022/12/07 07:51:09;;;;;;;18.00;16.90;;;3.30;99.90;;;;;;5099584;28;20243;-54
2022/12/07 07:53:35;;;;;;;18.30;17.10;;;3.30;99.90;;;;;;5100600;28;20190;-55
2022/12/07 07:56:00;;;;;;;17.70;16.50;;;3.30;99.90;;;;;;5103526;28;20187;-56
2022/12/07 07:58:27;;;;;;;19.53;18.13;;;3.30;99.90;;;;;;5103726;28;20183;-50
2022/12/07 08:00:53;;;;;;;19.05;17.65;;;3.40;99.90;;;;;;5101873;28;20194;-53
2022/12/07 08:03:18;;;;;;;19.60;18.20;;;3.40;99.90;;;;;;5102894;28;20203;-56
2022/12/07 08:05:44;;;;;;;19.90;18.43;;;3.40;99.90;;;;;;5102781;28;20184;-51
2022/12/07 08:08:10;;;;;;;19.70;18.30;;;3.50;99.90;;;;;;5103638;28;20996;-52
2022/12/07 08:10:36;;;;;;;20.97;19.30;;;3.50;99.90;;;;;;5103511;28;20184;-54
2022/12/07 08:13:13;;;;;;;20.92;19.25;;;3.50;99.90;;;;;;5102654;28;20210;-55
2022/12/07 08:15:40;;;;;;;19.38;17.92;;;3.60;99.90;;;;;;5103490;28;20179;-54
2022/12/07 08:18:06;;;;;;;21.20;19.48;;;3.70;99.90;;;;;;5102782;28;20319;-52
2022/12/07 08:20:33;;;;;;;21.10;19.47;;;3.70;99.90;;;;;;5102999;28;20175;-54
2022/12/07 08:22:59;;;;;;;21.55;19.85;;;3.60;99.90;;;;;;5102439;28;20580;-57
2022/12/07 08:25:25;;;;;;;20.97;19.23;;;3.70;99.90;;;;;;5100580;28;20190;-53
2022/12/07 08:27:51;;;;;;;22.77;20.97;;;3.80;99.90;;;;;;5101324;28;20426;-55
2022/12/07 08:30:17;;;;;;;22.30;20.30;;;3.80;99.90;;;;;;5102716;28;20702;-58
2022/12/07 08:32:45;;;;;;;21.73;19.93;;;3.90;99.90;;;;;;5102496;28;20207;-56
2022/12/07 08:35:10;;;;;;;20.88;19.17;;;4.00;99.90;;;;;;5102443;28;20449;-53
2022/12/07 08:37:36;;;;;;;22.23;20.43;;;4.00;99.90;;;;;;5102931;28;20393;-53
2022/12/07 08:40:04;;;;;;;21.40;19.80;;;4.00;99.90;;;;;;5102530;28;20591;-54
2022/12/07 08:42:37;;;;;;;22.23;20.52;;;4.00;99.90;;;;;;5102485;28;20453;-55
2022/12/07 08:45:05;;;;;;;23.00;21.10;;;4.00;99.90;;;;;;5102690;28;20585;-51
2022/12/07 08:47:31;;;;;;;22.27;20.52;;;4.10;99.90;;;;;;5102776;27;20176;-53
2022/12/07 08:50:03;;;;;;;22.25;20.55;;;4.20;99.90;;;;;;5102358;28;20191;-51
2022/12/07 08:52:31;;;;;;;22.30;20.63;;;4.20;99.90;;;;;;5102533;28;20203;-51
2022/12/07 08:54:59;;;;;;;21.92;20.02;;;4.30;99.90;;;;;;5101265;28;20215;-54
2022/12/07 08:57:26;;;;;;;21.13;19.38;;;4.30;99.90;;;;;;5102342;28;20207;-53
2022/12/07 08:59:52;;;;;;;21.75;20.05;;;4.40;99.90;;;;;;5102141;28;20591;-54
2022/12/07 09:02:17;;;;;;;20.57;19.00;;;4.60;99.90;;;;;;5102276;28;20180;-50
2022/12/07 09:04:43;;;;;;;19.20;17.70;;;4.70;99.90;;;;;;5101981;28;20180;-51
2022/12/07 09:07:09;;;;;;;19.47;18.07;;;4.70;99.90;;;;;;5102389;28;20192;-58
2022/12/07 09:09:34;;;;;;;18.97;17.50;;;4.80;99.90;;;;;;5102067;28;20545;-49
2022/12/07 09:12:00;;;;;;;17.87;16.47;;;4.90;99.90;;;;;;5101967;28;20817;-55
2022/12/07 09:14:26;;;;;;;18.87;17.37;;;4.90;99.90;;;;;;5101323;28;20180;-57
2022/12/07 09:16:51;;;;;;;18.40;17.00;;;4.90;99.90;;;;;;5101912;28;20228;-56
2022/12/07 09:19:17;;;;;;;17.90;16.53;;;5.00;99.90;;;;;;5101850;28;20650;-49
2022/12/07 09:21:42;;;;;;;18.87;17.27;;;5.00;99.90;;;;;;5102283;28;20282;-53
2022/12/07 09:24:09;;;;;;;18.10;16.60;;;5.00;99.90;;;;;;5099615;28;20172;-51
2022/12/07 09:26:35;;;;;;;18.05;16.65;;;5.10;99.90;;;;;;5100557;28;20461;-49
2022/12/07 09:29:02;;;;;;;17.23;15.80;;;5.00;99.90;;;;;;5101037;28;20184;-55
2022/12/07 09:31:28;;;;;;;17.63;15.90;;;5.10;99.90;;;;;;5100537;28;20449;-51
2022/12/07 09:33:58;;;;;;;17.13;15.80;;;5.20;99.90;;;;;;5100318;28;21276;-52
2022/12/07 09:36:25;;;;;;;16.75;15.35;;;5.30;99.90;;;;;;5101428;28;20215;-51
2022/12/07 09:38:51;;;;;;;15.52;14.43;;;5.50;99.90;;;;;;5101367;28;20187;-55
2022/12/07 09:41:16;;;;;;;15.85;14.70;;;5.90;99.90;;;;;;5101471;28;20255;-50
2022/12/07 09:43:42;;;;;;;15.63;14.43;;;5.80;99.90;;;;;;5101415;28;20207;-52
2022/12/07 09:46:14;;;;;;;16.10;14.90;;;5.80;99.90;;;;;;5101311;28;20505;-54
2022/12/07 09:48:42;;;;;;;15.75;14.52;;;5.80;99.90;;;;;;5101807;28;20675;-52
2022/12/07 09:51:18;;;;;;;15.40;14.30;;;5.80;99.90;;;;;;5101168;28;20271;-50
2022/12/07 09:53:45;;;;;;;16.13;14.93;;;5.90;99.90;;;;;;5100613;28;20174;-52
2022/12/07 09:56:14;;;;;;;16.48;15.27;;;5.80;99.90;;;;;;5100713;28;20172;-52
2022/12/07 09:58:40;;;;;;;16.63;15.35;;;5.90;99.90;;;;;;5101379;28;20200;-53
2022/12/07 10:01:13;;;;;;;15.50;14.40;;;6.00;99.90;;;;;;5100775;28;20293;-47
2022/12/07 10:03:43;;;;;;;16.30;14.83;;;6.70;99.90;;;;;;5100899;28;20813;-54
2022/12/07 10:06:12;;;;;;;15.40;14.20;;;7.10;99.90;;;;;;5100741;28;20710;-53
2022/12/07 10:08:37;;;;;;;14.23;13.33;;;7.40;99.90;;;;;;5101111;28;20425;-51
2022/12/07 10:11:03;;;;;;;14.23;13.23;;;7.70;99.90;;;;;;5100751;28;20537;-51
2022/12/07 10:13:46;;;;;;;13.50;12.70;;;7.90;99.90;;;;;;5100710;28;20653;-52
2022/12/07 10:16:23;;;;;;;14.67;13.67;;;7.90;99.90;;;;;;5099573;28;20243;-55
2022/12/07 10:18:49;;;;;;;15.27;14.10;;;7.90;99.90;;;;;;5099526;28;21066;-50
2022/12/07 10:21:20;;;;;;;15.30;14.30;;;8.00;99.90;;;;;;5100852;28;20435;-56
2022/12/07 10:24:14;;;;;;;14.83;13.90;;;8.60;99.90;;;;;;5099892;28;20437;-54
2022/12/07 10:26:46;;;;;;;14.77;13.80;;;9.60;99.90;;;;;;5099737;28;20433;-55
2022/12/07 10:29:20;;;;;;;13.80;12.90;;;10.30;98.60;;;;;;5100832;28;20424;-54
2022/12/07 10:31:50;;;;;;;14.70;13.60;;;10.70;98.00;;;;;;5099758;28;20457;-51
2022/12/07 10:34:25;;;;;;;14.93;13.83;;;10.80;95.70;;;;;;5100434;28;20405;-52
2022/12/07 10:36:52;;;;;;;14.47;13.50;;;10.50;96.30;;;;;;5100343;27;20814;-53
2022/12/07 10:39:23;;;;;;;14.10;13.10;;;9.90;96.60;;;;;;5100390;28;20425;-57
2022/12/07 10:42:00;;;;;;;14.93;14.00;;;9.40;98.30;;;;;;5100027;28;20963;-54
2022/12/07 10:44:28;;;;;;;13.60;12.80;;;8.60;99.90;;;;;;5100999;28;20441;-51
2022/12/07 10:47:02;;;;;;;14.10;13.03;;;7.90;99.90;;;;;;5099927;28;20488;-50
2022/12/07 10:50:12;;;;;;;15.10;13.77;;;7.60;99.90;;;;;;5099827;28;20419;-54
2022/12/07 10:52:52;;;;;;;14.18;13.20;;;7.20;99.90;;;;;;5061501;28;20991;-56
2022/12/07 10:55:31;;;;;;;14.45;13.35;;;6.70;99.90;;;;;;5098781;28;20941;-51
2022/12/07 10:58:31;;;;;;;15.38;13.98;;;6.70;99.90;;;;;;5098197;28;20429;-51
2022/12/07 11:01:23;;;;;;;13.45;12.35;;;6.50;99.90;;;;;;5100027;28;20278;-51
2022/12/07 11:04:07;;;;;;;14.75;13.65;;;6.40;99.90;;;;;;5016750;28;21035;-54
2022/12/07 11:06:36;;;;;;;13.60;12.50;;;6.20;99.90;;;;;;5017026;28;20279;-53
2022/12/07 11:09:23;;;;;;;15.02;13.63;;;6.10;99.90;;;;;;5016807;28;20685;-52
2022/12/07 11:11:54;;;;;;;14.82;13.48;;;6.00;99.90;;;;;;5016654;28;20284;-47
2022/12/07 11:14:35;;;;;;;14.98;13.85;;;6.00;99.90;;;;;;5016394;28;20627;-54
2022/12/07 11:17:35;;;;;;;14.75;13.55;;;5.90;99.90;;;;;;5016509;28;20230;-49
2022/12/07 11:20:06;;;;;;;14.95;13.80;;;6.00;99.90;;;;;;5014802;28;20267;-55
2022/12/07 11:23:27;;;;;;;15.15;13.85;;;6.00;99.90;;;;;;5016489;28;20189;-51
2022/12/07 11:26:06;;;;;;;14.73;13.70;;;6.00;99.90;;;;;;4999739;28;20365;-49
2022/12/07 11:28:40;;;;;;;15.23;14.02;;;6.10;99.90;;;;;;5016869;28;20321;-49
2022/12/07 11:31:37;;;;;;;14.55;13.55;;;6.10;99.90;;;;;;5019524;28;20190;-52
2022/12/07 11:34:24;;;;;;;15.48;14.38;;;6.10;99.90;;;;;;5020433;28;20207;-53
2022/12/07 11:36:54;;;;;;;15.73;14.52;;;6.20;99.90;;;;;;5019057;28;20255;-48
2022/12/07 11:39:26;;;;;;;14.68;12.93;;;6.20;99.90;;;;;;5020559;28;20195;-52
2022/12/07 11:42:05;;;;;;;15.50;14.40;;;6.10;99.90;;;;;;5101204;28;20384;-50
2022/12/07 11:44:51;;;;;;;15.68;14.57;;;6.10;99.90;;;;;;5103275;28;20189;-47
2022/12/07 11:47:40;;;;;;;17.23;15.98;;;5.90;99.90;;;;;;5103438;28;20165;-51
2022/12/07 11:50:24;;;;;;;18.35;17.15;;;5.60;99.90;;;;;;5102844;28;20211;-53
2022/12/07 11:53:08;;;;;;;18.85;17.60;;;5.20;99.90;;;;;;5102278;28;20207;-50
2022/12/07 11:55:46;;;;;;;20.05;18.60;;;5.10;99.90;;;;;;5103770;28;20175;-56
2022/12/07 11:58:28;;;;;;;20.77;19.13;;;5.00;99.90;;;;;;5102816;28;20638;-50
2022/12/07 12:01:12;;;;;;;21.92;20.25;;;4.90;99.90;;;;;;5103306;28;20182;-47
2022/12/07 12:03:45;;;;;;;20.23;18.90;;;4.80;99.90;;;;;;5102765;28;20190;-49
2022/12/07 12:06:11;;;;;;;21.00;19.60;;;4.80;99.90;;;;;;5101940;28;20181;-49
2022/12/07 12:08:45;;;;;;;22.30;20.40;;;4.90;99.90;;;;;;5101033;28;20748;-52
2022/12/07 12:11:30;;;;;;;22.80;20.88;;;5.00;99.90;;;;;;5101773;28;20191;-51
2022/12/07 12:14:26;;;;;;;21.67;20.05;;;4.90;99.90;;;;;;5103088;28;20186;-49
2022/12/07 12:16:55;;;;;;;22.60;20.65;;;4.90;99.90;;;;;;5102991;28;20227;-53
2022/12/07 12:19:37;;;;;;;20.63;18.70;;;5.00;99.90;;;;;;5103063;28;20172;-50
2022/12/07 12:22:17;;;;;;;20.65;19.15;;;5.10;99.90;;;;;;5102938;28;20270;-55
2022/12/07 12:24:45;;;;;;;20.80;19.40;;;5.30;99.90;;;;;;5101475;28;20187;-52
2022/12/07 12:27:33;;;;;;;22.27;20.42;;;5.40;99.90;;;;;;5102296;28;20202;-51
2022/12/07 12:30:01;;;;;;;20.77;19.13;;;5.50;99.90;;;;;;5103330;28;20192;-50
2022/12/07 12:32:39;;;;;;;19.88;18.35;;;5.60;99.90;;;;;;5102581;28;20256;-56
2022/12/07 12:35:45;;;;;;;19.42;18.02;;;5.60;99.90;;;;;;5102988;28;20534;-53
2022/12/07 12:38:31;;;;;;;19.33;17.80;;;5.50;99.90;;;;;;5100853;28;20176;-55
2022/12/07 12:40:57;;;;;;;20.00;18.60;;;5.50;99.90;;;;;;5100802;28;20195;-51
2022/12/07 12:43:43;;;;;;;20.77;19.17;;;5.50;99.90;;;;;;5102672;28;20481;-54
2022/12/07 12:46:34;;;;;;;20.20;18.88;;;5.40;99.90;;;;;;5084830;28;20202;-51
2022/12/07 12:49:21;;;;;;;18.27;17.17;;;5.40;99.90;;;;;;5101007;28;20506;-51
2022/12/07 12:51:52;;;;;;;17.73;16.65;;;5.20;99.90;;;;;;5101066;28;20234;-50
2022/12/07 12:54:17;;;;;;;17.60;16.58;;;5.00;99.90;;;;;;5100914;28;20180;-54
2022/12/07 12:56:47;;;;;;;17.10;16.20;;;4.90;99.90;;;;;;5101253;28;20198;-55
2022/12/07 12:59:22;;;;;;;17.88;16.85;;;4.80;99.90;;;;;;5101974;28;20206;-52
2022/12/07 13:01:50;;;;;;;17.50;16.40;;;4.70;99.90;;;;;;5098928;28;20185;-51